sensor_id;sensor_type;location;lat;lon;timestamp;P1;durP1;ratioP1;P2;durP2;ratioP2
8480;SDS011;4277;51.354;6.740;2022-09-16T00:00:43;3.13;;;1.23;;
8480;SDS011;4277;51.354;6.740;2022-09-16T00:03:10;2.97;;;0.93;;
8480;SDS011;4277;51.354;6.740;2022-09-16T00:05:46;2.90;;;1.20;;
8480;SDS011;4277;51.354;6.740;2022-09-16T00:08:12;3.27;;;0.90;;
8480;SDS011;4277;51.354;6.740;2022-09-16T00:10:39;5.87;;;1.00;;
8480;SDS011;4277;51.354;6.740;2022-09-16T00:13:05;3.87;;;1.00;;
8480;SDS011;4277;51.354;6.740;2022-09-16T00:15:31;3.00;;;1.17;;
8480;SDS011;4277;51.354;6.740;2022-09-16T00:17:57;7.20;;;1.30;;
8480;SDS011;4277;51.354;6.740;2022-09-16T00:20:23;2.13;;;1.03;;
8480;SDS011;4277;51.354;6.740;2022-09-16T00:22:49;5.80;;;1.13;;
8480;SDS011;4277;51.354;6.740;2022-09-16T00:25:15;3.60;;;1.30;;
8480;SDS011;4277;51.354;6.740;2022-09-16T00:27:41;6.50;;;1.20;;
8480;SDS011;4277;51.354;6.740;2022-09-16T00:30:07;3.00;;;1.00;;
8480;SDS011;4277;51.354;6.740;2022-09-16T00:32:33;6.23;;;1.40;;
8480;SDS011;4277;51.354;6.740;2022-09-16T00:34:59;4.90;;;1.50;;
8480;SDS011;4277;51.354;6.740;2022-09-16T00:37:25;6.40;;;1.10;;
8480;SDS011;4277;51.354;6.740;2022-09-16T00:39:51;5.70;;;1.10;;
8480;SDS011;4277;51.354;6.740;2022-09-16T00:42:17;7.03;;;1.20;;
8480;SDS011;4277;51.354;6.740;2022-09-16T00:47:20;3.43;;;1.13;;
8480;SDS011;4277;51.354;6.740;2022-09-16T00:49:47;4.27;;;1.13;;
8480;SDS011;4277;51.354;6.740;2022-09-16T00:52:14;3.10;;;1.33;;
8480;SDS011;4277;51.354;6.740;2022-09-16T00:54:41;2.20;;;0.83;;
8480;SDS011;4277;51.354;6.740;2022-09-16T00:57:08;4.03;;;1.17;;
8480;SDS011;4277;51.354;6.740;2022-09-16T00:59:36;3.70;;;1.13;;
8480;SDS011;4277;51.354;6.740;2022-09-16T01:02:05;6.03;;;1.17;;
8480;SDS011;4277;51.354;6.740;2022-09-16T01:04:34;4.03;;;1.00;;
8480;SDS011;4277;51.354;6.740;2022-09-16T01:07:01;2.63;;;0.93;;
8480;SDS011;4277;51.354;6.740;2022-09-16T01:09:27;2.57;;;1.00;;
8480;SDS011;4277;51.354;6.740;2022-09-16T01:11:54;4.40;;;1.03;;
8480;SDS011;4277;51.354;6.740;2022-09-16T01:14:20;2.90;;;1.03;;
8480;SDS011;4277;51.354;6.740;2022-09-16T01:22:51;4.20;;;1.40;;
8480;SDS011;4277;51.354;6.740;2022-09-16T01:33:15;5.83;;;1.23;;
8480;SDS011;4277;51.354;6.740;2022-09-16T01:44:01;4.50;;;1.10;;
8480;SDS011;4277;51.354;6.740;2022-09-16T01:54:57;4.57;;;1.40;;
8480;SDS011;4277;51.354;6.740;2022-09-16T01:57:36;4.23;;;1.20;;
8480;SDS011;4277;51.354;6.740;2022-09-16T02:00:05;4.80;;;1.20;;
8480;SDS011;4277;51.354;6.740;2022-09-16T02:02:36;4.90;;;1.03;;
8480;SDS011;4277;51.354;6.740;2022-09-16T02:05:05;5.33;;;1.20;;
8480;SDS011;4277;51.354;6.740;2022-09-16T02:07:34;3.63;;;1.27;;
8480;SDS011;4277;51.354;6.740;2022-09-16T02:10:06;4.90;;;1.00;;
8480;SDS011;4277;51.354;6.740;2022-09-16T02:12:34;5.87;;;1.20;;
8480;SDS011;4277;51.354;6.740;2022-09-16T02:15:03;2.77;;;1.10;;
8480;SDS011;4277;51.354;6.740;2022-09-16T02:17:31;5.20;;;1.40;;
8480;SDS011;4277;51.354;6.740;2022-09-16T02:19:59;4.87;;;1.60;;
8480;SDS011;4277;51.354;6.740;2022-09-16T02:22:27;6.27;;;1.40;;
8480;SDS011;4277;51.354;6.740;2022-09-16T02:24:56;4.00;;;1.30;;
8480;SDS011;4277;51.354;6.740;2022-09-16T02:27:24;4.67;;;1.43;;
8480;SDS011;4277;51.354;6.740;2022-09-16T02:29:53;6.00;;;1.20;;
8480;SDS011;4277;51.354;6.740;2022-09-16T02:32:21;4.23;;;1.33;;
8480;SDS011;4277;51.354;6.740;2022-09-16T02:34:49;3.83;;;1.20;;
8480;SDS011;4277;51.354;6.740;2022-09-16T02:37:39;3.93;;;1.53;;
8480;SDS011;4277;51.354;6.740;2022-09-16T02:40:10;7.23;;;1.50;;
8480;SDS011;4277;51.354;6.740;2022-09-16T02:42:37;4.17;;;1.27;;
8480;SDS011;4277;51.354;6.740;2022-09-16T02:45:03;3.57;;;1.33;;
8480;SDS011;4277;51.354;6.740;2022-09-16T02:52:44;6.23;;;1.40;;
8480;SDS011;4277;51.354;6.740;2022-09-16T02:57:40;5.17;;;1.63;;
8480;SDS011;4277;51.354;6.740;2022-09-16T03:00:06;5.90;;;2.23;;
8480;SDS011;4277;51.354;6.740;2022-09-16T03:02:33;5.60;;;1.70;;
8480;SDS011;4277;51.354;6.740;2022-09-16T03:04:59;4.00;;;1.80;;
8480;SDS011;4277;51.354;6.740;2022-09-16T03:07:25;4.03;;;1.70;;
8480;SDS011;4277;51.354;6.740;2022-09-16T03:09:51;5.57;;;1.87;;
8480;SDS011;4277;51.354;6.740;2022-09-16T03:16:23;3.90;;;1.43;;
8480;SDS011;4277;51.354;6.740;2022-09-16T03:29:11;4.57;;;1.47;;
8480;SDS011;4277;51.354;6.740;2022-09-16T03:31:45;3.67;;;1.30;;
8480;SDS011;4277;51.354;6.740;2022-09-16T03:34:16;5.87;;;1.30;;
8480;SDS011;4277;51.354;6.740;2022-09-16T03:36:46;4.47;;;1.50;;
8480;SDS011;4277;51.354;6.740;2022-09-16T03:39:12;2.80;;;1.20;;
8480;SDS011;4277;51.354;6.740;2022-09-16T03:41:38;4.40;;;1.40;;
8480;SDS011;4277;51.354;6.740;2022-09-16T03:44:04;5.43;;;1.50;;
8480;SDS011;4277;51.354;6.740;2022-09-16T03:46:31;3.37;;;1.30;;
8480;SDS011;4277;51.354;6.740;2022-09-16T03:48:57;4.53;;;1.30;;
8480;SDS011;4277;51.354;6.740;2022-09-16T03:51:23;6.10;;;1.30;;
8480;SDS011;4277;51.354;6.740;2022-09-16T03:53:50;3.57;;;1.40;;
8480;SDS011;4277;51.354;6.740;2022-09-16T03:56:16;5.27;;;1.30;;
8480;SDS011;4277;51.354;6.740;2022-09-16T03:58:42;4.20;;;1.30;;
8480;SDS011;4277;51.354;6.740;2022-09-16T04:01:08;5.10;;;1.50;;
8480;SDS011;4277;51.354;6.740;2022-09-16T04:03:34;3.63;;;1.57;;
8480;SDS011;4277;51.354;6.740;2022-09-16T04:06:01;4.97;;;1.83;;
8480;SDS011;4277;51.354;6.740;2022-09-16T04:08:27;6.27;;;1.97;;
8480;SDS011;4277;51.354;6.740;2022-09-16T04:10:57;3.73;;;1.70;;
8480;SDS011;4277;51.354;6.740;2022-09-16T04:13:23;4.20;;;1.53;;
8480;SDS011;4277;51.354;6.740;2022-09-16T04:15:49;8.53;;;1.73;;
8480;SDS011;4277;51.354;6.740;2022-09-16T04:18:16;6.93;;;1.90;;
8480;SDS011;4277;51.354;6.740;2022-09-16T04:20:42;3.30;;;1.47;;
8480;SDS011;4277;51.354;6.740;2022-09-16T04:23:08;6.13;;;1.80;;
8480;SDS011;4277;51.354;6.740;2022-09-16T04:25:34;5.80;;;1.93;;
8480;SDS011;4277;51.354;6.740;2022-09-16T04:28:00;7.23;;;2.07;;
8480;SDS011;4277;51.354;6.740;2022-09-16T04:30:26;7.70;;;2.40;;
8480;SDS011;4277;51.354;6.740;2022-09-16T04:32:52;7.20;;;2.10;;
8480;SDS011;4277;51.354;6.740;2022-09-16T04:35:18;5.20;;;1.90;;
8480;SDS011;4277;51.354;6.740;2022-09-16T04:37:44;6.10;;;2.17;;
8480;SDS011;4277;51.354;6.740;2022-09-16T04:40:11;6.53;;;2.13;;
8480;SDS011;4277;51.354;6.740;2022-09-16T04:42:36;6.10;;;1.93;;
8480;SDS011;4277;51.354;6.740;2022-09-16T04:45:03;6.57;;;2.37;;
8480;SDS011;4277;51.354;6.740;2022-09-16T04:47:29;4.03;;;2.30;;
8480;SDS011;4277;51.354;6.740;2022-09-16T04:49:55;4.97;;;2.40;;
8480;SDS011;4277;51.354;6.740;2022-09-16T04:52:21;6.53;;;2.33;;
8480;SDS011;4277;51.354;6.740;2022-09-16T04:54:47;4.17;;;2.40;;
8480;SDS011;4277;51.354;6.740;2022-09-16T04:57:13;3.90;;;2.40;;
8480;SDS011;4277;51.354;6.740;2022-09-16T04:59:39;10.87;;;2.67;;
8480;SDS011;4277;51.354;6.740;2022-09-16T05:02:05;4.33;;;2.40;;
8480;SDS011;4277;51.354;6.740;2022-09-16T05:04:31;5.83;;;2.80;;
8480;SDS011;4277;51.354;6.740;2022-09-16T05:06:57;10.37;;;3.40;;
8480;SDS011;4277;51.354;6.740;2022-09-16T05:09:23;7.30;;;3.10;;
8480;SDS011;4277;51.354;6.740;2022-09-16T05:11:49;10.17;;;3.03;;
8480;SDS011;4277;51.354;6.740;2022-09-16T05:14:16;10.43;;;3.60;;
8480;SDS011;4277;51.354;6.740;2022-09-16T05:16:42;6.23;;;2.73;;
8480;SDS011;4277;51.354;6.740;2022-09-16T05:19:09;8.60;;;3.43;;
8480;SDS011;4277;51.354;6.740;2022-09-16T05:21:36;6.97;;;2.80;;
8480;SDS011;4277;51.354;6.740;2022-09-16T05:24:04;7.63;;;3.30;;
8480;SDS011;4277;51.354;6.740;2022-09-16T05:26:32;9.20;;;3.30;;
8480;SDS011;4277;51.354;6.740;2022-09-16T05:28:59;11.53;;;2.93;;
8480;SDS011;4277;51.354;6.740;2022-09-16T05:31:26;6.87;;;3.00;;
8480;SDS011;4277;51.354;6.740;2022-09-16T05:33:54;6.00;;;3.00;;
8480;SDS011;4277;51.354;6.740;2022-09-16T05:36:20;10.63;;;2.77;;
8480;SDS011;4277;51.354;6.740;2022-09-16T05:38:46;7.40;;;2.70;;
8480;SDS011;4277;51.354;6.740;2022-09-16T05:41:12;7.80;;;2.33;;
8480;SDS011;4277;51.354;6.740;2022-09-16T05:43:38;5.20;;;2.53;;
8480;SDS011;4277;51.354;6.740;2022-09-16T05:46:05;6.30;;;2.60;;
8480;SDS011;4277;51.354;6.740;2022-09-16T05:48:32;7.47;;;2.60;;
8480;SDS011;4277;51.354;6.740;2022-09-16T05:51:00;6.77;;;2.60;;
8480;SDS011;4277;51.354;6.740;2022-09-16T05:53:27;6.00;;;2.40;;
8480;SDS011;4277;51.354;6.740;2022-09-16T05:56:03;6.43;;;2.70;;
8480;SDS011;4277;51.354;6.740;2022-09-16T05:58:30;9.40;;;3.03;;
8480;SDS011;4277;51.354;6.740;2022-09-16T06:01:05;5.30;;;2.77;;
8480;SDS011;4277;51.354;6.740;2022-09-16T06:03:32;4.27;;;2.30;;
8480;SDS011;4277;51.354;6.740;2022-09-16T06:06:05;6.53;;;2.67;;
8480;SDS011;4277;51.354;6.740;2022-09-16T06:08:32;7.50;;;2.50;;
8480;SDS011;4277;51.354;6.740;2022-09-16T06:10:59;8.50;;;2.60;;
8480;SDS011;4277;51.354;6.740;2022-09-16T06:13:25;7.90;;;2.30;;
8480;SDS011;4277;51.354;6.740;2022-09-16T06:15:52;7.33;;;2.60;;
8480;SDS011;4277;51.354;6.740;2022-09-16T06:18:19;7.47;;;2.40;;
8480;SDS011;4277;51.354;6.740;2022-09-16T06:20:45;4.77;;;2.60;;
8480;SDS011;4277;51.354;6.740;2022-09-16T06:23:11;4.13;;;2.50;;
8480;SDS011;4277;51.354;6.740;2022-09-16T06:25:37;4.87;;;2.50;;
8480;SDS011;4277;51.354;6.740;2022-09-16T06:28:03;4.37;;;2.30;;
8480;SDS011;4277;51.354;6.740;2022-09-16T06:30:30;6.13;;;2.73;;
8480;SDS011;4277;51.354;6.740;2022-09-16T06:32:56;4.77;;;2.30;;
8480;SDS011;4277;51.354;6.740;2022-09-16T06:35:22;7.03;;;2.47;;
8480;SDS011;4277;51.354;6.740;2022-09-16T06:37:48;11.27;;;2.90;;
8480;SDS011;4277;51.354;6.740;2022-09-16T06:40:14;7.50;;;2.70;;
8480;SDS011;4277;51.354;6.740;2022-09-16T06:42:40;11.33;;;3.47;;
8480;SDS011;4277;51.354;6.740;2022-09-16T06:45:06;6.63;;;2.77;;
8480;SDS011;4277;51.354;6.740;2022-09-16T06:47:32;8.47;;;3.20;;
8480;SDS011;4277;51.354;6.740;2022-09-16T06:49:59;9.77;;;3.23;;
8480;SDS011;4277;51.354;6.740;2022-09-16T06:52:25;9.33;;;3.30;;
8480;SDS011;4277;51.354;6.740;2022-09-16T06:54:52;7.43;;;2.90;;
8480;SDS011;4277;51.354;6.740;2022-09-16T06:57:18;7.67;;;2.80;;
8480;SDS011;4277;51.354;6.740;2022-09-16T06:59:49;12.50;;;3.33;;
8480;SDS011;4277;51.354;6.740;2022-09-16T07:02:16;5.47;;;2.90;;
8480;SDS011;4277;51.354;6.740;2022-09-16T07:04:42;5.47;;;2.47;;
8480;SDS011;4277;51.354;6.740;2022-09-16T07:07:08;6.53;;;3.07;;
8480;SDS011;4277;51.354;6.740;2022-09-16T07:09:34;7.63;;;3.13;;
8480;SDS011;4277;51.354;6.740;2022-09-16T07:12:00;8.57;;;3.10;;
8480;SDS011;4277;51.354;6.740;2022-09-16T07:14:26;9.93;;;3.20;;
8480;SDS011;4277;51.354;6.740;2022-09-16T07:16:53;4.53;;;2.60;;
8480;SDS011;4277;51.354;6.740;2022-09-16T07:19:19;6.13;;;2.40;;
8480;SDS011;4277;51.354;6.740;2022-09-16T07:21:45;6.40;;;2.60;;
8480;SDS011;4277;51.354;6.740;2022-09-16T07:24:11;4.07;;;2.20;;
8480;SDS011;4277;51.354;6.740;2022-09-16T07:26:38;5.73;;;2.30;;
8480;SDS011;4277;51.354;6.740;2022-09-16T07:29:05;5.43;;;2.30;;
8480;SDS011;4277;51.354;6.740;2022-09-16T07:31:33;4.93;;;2.30;;
8480;SDS011;4277;51.354;6.740;2022-09-16T07:34:00;4.50;;;2.03;;
8480;SDS011;4277;51.354;6.740;2022-09-16T07:36:27;5.77;;;2.03;;
8480;SDS011;4277;51.354;6.740;2022-09-16T07:38:54;3.63;;;1.83;;
8480;SDS011;4277;51.354;6.740;2022-09-16T07:41:25;3.80;;;2.00;;
8480;SDS011;4277;51.354;6.740;2022-09-16T07:43:52;5.83;;;2.07;;
8480;SDS011;4277;51.354;6.740;2022-09-16T07:46:19;3.93;;;1.80;;
8480;SDS011;4277;51.354;6.740;2022-09-16T07:48:46;5.40;;;2.00;;
8480;SDS011;4277;51.354;6.740;2022-09-16T07:51:13;5.30;;;1.63;;
8480;SDS011;4277;51.354;6.740;2022-09-16T07:53:40;2.90;;;1.40;;
8480;SDS011;4277;51.354;6.740;2022-09-16T07:56:13;4.07;;;1.60;;
8480;SDS011;4277;51.354;6.740;2022-09-16T07:58:39;3.33;;;1.30;;
8480;SDS011;4277;51.354;6.740;2022-09-16T08:01:06;2.50;;;1.47;;
8480;SDS011;4277;51.354;6.740;2022-09-16T08:03:33;4.17;;;1.70;;
8480;SDS011;4277;51.354;6.740;2022-09-16T08:06:03;4.97;;;1.70;;
8480;SDS011;4277;51.354;6.740;2022-09-16T08:08:29;3.80;;;1.90;;
8480;SDS011;4277;51.354;6.740;2022-09-16T08:10:56;4.07;;;1.60;;
8480;SDS011;4277;51.354;6.740;2022-09-16T08:13:22;5.53;;;1.50;;
8480;SDS011;4277;51.354;6.740;2022-09-16T08:15:49;4.13;;;1.47;;
8480;SDS011;4277;51.354;6.740;2022-09-16T08:18:15;4.83;;;1.70;;
8480;SDS011;4277;51.354;6.740;2022-09-16T08:20:41;3.20;;;1.30;;
8480;SDS011;4277;51.354;6.740;2022-09-16T08:23:07;6.10;;;1.70;;
8480;SDS011;4277;51.354;6.740;2022-09-16T08:25:33;6.90;;;1.43;;
8480;SDS011;4277;51.354;6.740;2022-09-16T08:28:00;2.97;;;1.20;;
8480;SDS011;4277;51.354;6.740;2022-09-16T08:30:26;3.80;;;1.50;;
8480;SDS011;4277;51.354;6.740;2022-09-16T08:32:55;5.17;;;1.60;;
8480;SDS011;4277;51.354;6.740;2022-09-16T08:35:21;5.47;;;1.40;;
8480;SDS011;4277;51.354;6.740;2022-09-16T08:37:47;2.10;;;1.07;;
8480;SDS011;4277;51.354;6.740;2022-09-16T08:40:14;3.47;;;1.00;;
8480;SDS011;4277;51.354;6.740;2022-09-16T08:47:45;3.30;;;1.37;;
8480;SDS011;4277;51.354;6.740;2022-09-16T08:50:15;5.47;;;1.60;;
8480;SDS011;4277;51.354;6.740;2022-09-16T08:52:42;3.70;;;1.23;;
8480;SDS011;4277;51.354;6.740;2022-09-16T08:57:37;5.80;;;1.97;;
8480;SDS011;4277;51.354;6.740;2022-09-16T09:00:06;5.30;;;1.80;;
8480;SDS011;4277;51.354;6.740;2022-09-16T09:05:02;5.10;;;1.50;;
8480;SDS011;4277;51.354;6.740;2022-09-16T09:12:48;5.00;;;1.70;;
8480;SDS011;4277;51.354;6.740;2022-09-16T09:15:25;4.27;;;1.60;;
8480;SDS011;4277;51.354;6.740;2022-09-16T09:20:49;4.97;;;1.60;;
8480;SDS011;4277;51.354;6.740;2022-09-16T09:28:46;4.20;;;0.97;;
8480;SDS011;4277;51.354;6.740;2022-09-16T09:36:35;3.27;;;0.90;;
8480;SDS011;4277;51.354;6.740;2022-09-16T09:41:44;3.53;;;0.97;;
8480;SDS011;4277;51.354;6.740;2022-09-16T09:47:12;4.47;;;0.93;;
8480;SDS011;4277;51.354;6.740;2022-09-16T09:49:41;4.50;;;1.00;;
8480;SDS011;4277;51.354;6.740;2022-09-16T09:52:15;6.57;;;1.07;;
8480;SDS011;4277;51.354;6.740;2022-09-16T09:54:47;2.23;;;0.70;;
8480;SDS011;4277;51.354;6.740;2022-09-16T09:57:20;5.07;;;0.93;;
8480;SDS011;4277;51.354;6.740;2022-09-16T10:00:01;5.27;;;0.93;;
8480;SDS011;4277;51.354;6.740;2022-09-16T10:02:34;4.00;;;0.70;;
8480;SDS011;4277;51.354;6.740;2022-09-16T10:05:03;5.77;;;1.60;;
8480;SDS011;4277;51.354;6.740;2022-09-16T10:07:31;4.37;;;1.20;;
8480;SDS011;4277;51.354;6.740;2022-09-16T10:10:02;3.50;;;1.00;;
8480;SDS011;4277;51.354;6.740;2022-09-16T10:12:30;3.97;;;0.80;;
8480;SDS011;4277;51.354;6.740;2022-09-16T10:14:57;4.00;;;0.70;;
8480;SDS011;4277;51.354;6.740;2022-09-16T10:17:23;4.17;;;1.27;;
8480;SDS011;4277;51.354;6.740;2022-09-16T10:19:54;5.23;;;1.50;;
8480;SDS011;4277;51.354;6.740;2022-09-16T10:22:25;7.00;;;1.83;;
8480;SDS011;4277;51.354;6.740;2022-09-16T10:25:02;3.93;;;1.67;;
8480;SDS011;4277;51.354;6.740;2022-09-16T10:27:31;4.40;;;1.20;;
8480;SDS011;4277;51.354;6.740;2022-09-16T10:32:29;2.50;;;0.60;;
8480;SDS011;4277;51.354;6.740;2022-09-16T10:34:56;1.80;;;0.60;;
8480;SDS011;4277;51.354;6.740;2022-09-16T10:37:22;1.60;;;0.53;;
8480;SDS011;4277;51.354;6.740;2022-09-16T10:39:52;4.10;;;0.97;;
8480;SDS011;4277;51.354;6.740;2022-09-16T10:42:23;4.73;;;0.80;;
8480;SDS011;4277;51.354;6.740;2022-09-16T10:44:50;2.77;;;1.00;;
8480;SDS011;4277;51.354;6.740;2022-09-16T10:47:21;3.20;;;0.80;;
8480;SDS011;4277;51.354;6.740;2022-09-16T10:49:49;4.00;;;0.80;;
8480;SDS011;4277;51.354;6.740;2022-09-16T10:52:16;2.00;;;0.83;;
8480;SDS011;4277;51.354;6.740;2022-09-16T10:54:43;5.40;;;0.87;;
8480;SDS011;4277;51.354;6.740;2022-09-16T10:59:55;7.03;;;1.07;;
8480;SDS011;4277;51.354;6.740;2022-09-16T11:05:13;3.90;;;0.90;;
8480;SDS011;4277;51.354;6.740;2022-09-16T11:12:49;2.60;;;0.70;;
8480;SDS011;4277;51.354;6.740;2022-09-16T11:20:31;3.47;;;1.60;;
8480;SDS011;4277;51.354;6.740;2022-09-16T11:25:46;6.07;;;1.93;;
8480;SDS011;4277;51.354;6.740;2022-09-16T11:31:05;7.20;;;2.10;;
8480;SDS011;4277;51.354;6.740;2022-09-16T11:33:39;6.20;;;1.93;;
8480;SDS011;4277;51.354;6.740;2022-09-16T11:39:00;4.67;;;1.13;;
8480;SDS011;4277;51.354;6.740;2022-09-16T11:41:32;2.60;;;1.03;;
8480;SDS011;4277;51.354;6.740;2022-09-16T11:46:39;3.20;;;1.00;;
8480;SDS011;4277;51.354;6.740;2022-09-16T11:49:16;2.97;;;0.90;;
8480;SDS011;4277;51.354;6.740;2022-09-16T11:52:10;4.20;;;0.80;;
8480;SDS011;4277;51.354;6.740;2022-09-16T11:57:04;3.97;;;2.03;;
8480;SDS011;4277;51.354;6.740;2022-09-16T11:59:32;7.27;;;1.77;;
8480;SDS011;4277;51.354;6.740;2022-09-16T12:02:01;3.80;;;1.40;;
8480;SDS011;4277;51.354;6.740;2022-09-16T12:04:30;3.57;;;0.83;;
8480;SDS011;4277;51.354;6.740;2022-09-16T12:07:00;3.80;;;0.90;;
8480;SDS011;4277;51.354;6.740;2022-09-16T12:09:35;3.37;;;0.70;;
8480;SDS011;4277;51.354;6.740;2022-09-16T12:12:05;1.17;;;0.60;;
8480;SDS011;4277;51.354;6.740;2022-09-16T12:14:35;2.57;;;0.50;;
8480;SDS011;4277;51.354;6.740;2022-09-16T12:17:07;1.27;;;0.40;;
8480;SDS011;4277;51.354;6.740;2022-09-16T12:19:56;1.43;;;0.50;;
8480;SDS011;4277;51.354;6.740;2022-09-16T12:22:25;0.73;;;0.40;;
8480;SDS011;4277;51.354;6.740;2022-09-16T12:24:54;2.33;;;0.60;;
8480;SDS011;4277;51.354;6.740;2022-09-16T12:27:27;1.73;;;0.40;;
8480;SDS011;4277;51.354;6.740;2022-09-16T12:35:18;1.40;;;0.57;;
8480;SDS011;4277;51.354;6.740;2022-09-16T12:37:48;1.20;;;0.43;;
8480;SDS011;4277;51.354;6.740;2022-09-16T12:40:16;1.27;;;0.50;;
8480;SDS011;4277;51.354;6.740;2022-09-16T12:48:01;3.27;;;0.93;;
8480;SDS011;4277;51.354;6.740;2022-09-16T12:56:13;3.13;;;0.77;;
8480;SDS011;4277;51.354;6.740;2022-09-16T13:01:18;5.10;;;1.00;;
8480;SDS011;4277;51.354;6.740;2022-09-16T13:03:55;2.07;;;0.60;;
8480;SDS011;4277;51.354;6.740;2022-09-16T13:06:23;3.30;;;0.77;;
8480;SDS011;4277;51.354;6.740;2022-09-16T13:08:50;1.67;;;0.70;;
8480;SDS011;4277;51.354;6.740;2022-09-16T13:11:18;1.80;;;0.70;;
8480;SDS011;4277;51.354;6.740;2022-09-16T13:13:46;1.77;;;0.57;;
8480;SDS011;4277;51.354;6.740;2022-09-16T13:16:13;3.30;;;0.87;;
8480;SDS011;4277;51.354;6.740;2022-09-16T13:23:44;1.77;;;0.77;;
8480;SDS011;4277;51.354;6.740;2022-09-16T13:26:11;2.43;;;0.60;;
8480;SDS011;4277;51.354;6.740;2022-09-16T13:28:42;2.23;;;0.73;;
8480;SDS011;4277;51.354;6.740;2022-09-16T13:33:47;4.47;;;1.20;;
8480;SDS011;4277;51.354;6.740;2022-09-16T13:38:49;4.10;;;1.10;;
8480;SDS011;4277;51.354;6.740;2022-09-16T13:41:33;2.60;;;0.93;;
8480;SDS011;4277;51.354;6.740;2022-09-16T13:43:59;1.40;;;0.70;;
8480;SDS011;4277;51.354;6.740;2022-09-16T13:46:27;3.37;;;0.73;;
8480;SDS011;4277;51.354;6.740;2022-09-16T13:51:29;2.57;;;0.90;;
8480;SDS011;4277;51.354;6.740;2022-09-16T13:53:55;1.33;;;0.67;;
8480;SDS011;4277;51.354;6.740;2022-09-16T14:01:33;2.67;;;0.50;;
8480;SDS011;4277;51.354;6.740;2022-09-16T14:09:21;1.80;;;0.63;;
8480;SDS011;4277;51.354;6.740;2022-09-16T14:12:00;2.20;;;0.50;;
8480;SDS011;4277;51.354;6.740;2022-09-16T14:14:27;1.40;;;0.50;;
8480;SDS011;4277;51.354;6.740;2022-09-16T14:16:55;1.07;;;0.40;;
8480;SDS011;4277;51.354;6.740;2022-09-16T14:19:26;1.03;;;0.30;;
8480;SDS011;4277;51.354;6.740;2022-09-16T14:22:00;1.07;;;0.30;;
8480;SDS011;4277;51.354;6.740;2022-09-16T14:24:32;0.60;;;0.30;;
8480;SDS011;4277;51.354;6.740;2022-09-16T14:26:58;1.87;;;0.50;;
8480;SDS011;4277;51.354;6.740;2022-09-16T14:29:24;1.37;;;0.53;;
8480;SDS011;4277;51.354;6.740;2022-09-16T14:31:52;2.27;;;0.80;;
8480;SDS011;4277;51.354;6.740;2022-09-16T14:34:27;1.23;;;0.40;;
8480;SDS011;4277;51.354;6.740;2022-09-16T14:36:55;2.20;;;0.57;;
8480;SDS011;4277;51.354;6.740;2022-09-16T14:39:22;2.07;;;0.43;;
8480;SDS011;4277;51.354;6.740;2022-09-16T14:41:56;2.80;;;0.73;;
8480;SDS011;4277;51.354;6.740;2022-09-16T14:46:56;2.97;;;0.60;;
8480;SDS011;4277;51.354;6.740;2022-09-16T14:49:23;2.27;;;0.80;;
8480;SDS011;4277;51.354;6.740;2022-09-16T14:51:51;3.57;;;0.87;;
8480;SDS011;4277;51.354;6.740;2022-09-16T14:54:19;2.37;;;0.70;;
8480;SDS011;4277;51.354;6.740;2022-09-16T14:59:25;3.77;;;1.00;;
8480;SDS011;4277;51.354;6.740;2022-09-16T15:01:52;2.47;;;0.63;;
8480;SDS011;4277;51.354;6.740;2022-09-16T15:04:22;2.30;;;0.63;;
8480;SDS011;4277;51.354;6.740;2022-09-16T15:06:51;2.50;;;0.80;;
8480;SDS011;4277;51.354;6.740;2022-09-16T15:09:27;1.93;;;0.67;;
8480;SDS011;4277;51.354;6.740;2022-09-16T15:11:58;6.47;;;1.03;;
8480;SDS011;4277;51.354;6.740;2022-09-16T15:14:25;2.17;;;0.60;;
8480;SDS011;4277;51.354;6.740;2022-09-16T15:16:56;3.97;;;0.70;;
8480;SDS011;4277;51.354;6.740;2022-09-16T15:19:24;3.20;;;0.43;;
8480;SDS011;4277;51.354;6.740;2022-09-16T15:21:51;3.80;;;0.60;;
8480;SDS011;4277;51.354;6.740;2022-09-16T15:24:25;1.93;;;0.63;;
8480;SDS011;4277;51.354;6.740;2022-09-16T15:26:52;1.93;;;0.60;;
8480;SDS011;4277;51.354;6.740;2022-09-16T15:31:45;2.47;;;0.60;;
8480;SDS011;4277;51.354;6.740;2022-09-16T15:36:50;2.70;;;0.97;;
8480;SDS011;4277;51.354;6.740;2022-09-16T15:39:36;2.20;;;0.70;;
8480;SDS011;4277;51.354;6.740;2022-09-16T15:44:30;3.83;;;0.90;;
8480;SDS011;4277;51.354;6.740;2022-09-16T15:46:56;6.83;;;1.23;;
8480;SDS011;4277;51.354;6.740;2022-09-16T15:49:22;4.03;;;0.90;;
8480;SDS011;4277;51.354;6.740;2022-09-16T15:51:50;2.97;;;0.90;;
8480;SDS011;4277;51.354;6.740;2022-09-16T15:56:51;2.37;;;1.00;;
8480;SDS011;4277;51.354;6.740;2022-09-16T15:59:25;2.37;;;0.90;;
8480;SDS011;4277;51.354;6.740;2022-09-16T16:01:53;3.17;;;1.10;;
8480;SDS011;4277;51.354;6.740;2022-09-16T16:04:25;3.53;;;1.10;;
8480;SDS011;4277;51.354;6.740;2022-09-16T16:06:59;4.30;;;0.90;;
8480;SDS011;4277;51.354;6.740;2022-09-16T16:11:52;4.43;;;0.90;;
8480;SDS011;4277;51.354;6.740;2022-09-16T16:14:18;3.73;;;0.57;;
8480;SDS011;4277;51.354;6.740;2022-09-16T16:16:44;4.27;;;1.00;;
8480;SDS011;4277;51.354;6.740;2022-09-16T16:19:10;2.80;;;0.90;;
8480;SDS011;4277;51.354;6.740;2022-09-16T16:21:39;3.20;;;0.80;;
8480;SDS011;4277;51.354;6.740;2022-09-16T16:24:13;2.97;;;1.00;;
8480;SDS011;4277;51.354;6.740;2022-09-16T16:26:39;4.73;;;0.90;;
8480;SDS011;4277;51.354;6.740;2022-09-16T16:29:05;3.20;;;0.90;;
8480;SDS011;4277;51.354;6.740;2022-09-16T16:31:31;2.20;;;0.80;;
8480;SDS011;4277;51.354;6.740;2022-09-16T16:33:58;1.30;;;0.70;;
8480;SDS011;4277;51.354;6.740;2022-09-16T16:36:24;1.90;;;0.80;;
8480;SDS011;4277;51.354;6.740;2022-09-16T16:38:50;4.23;;;1.10;;
8480;SDS011;4277;51.354;6.740;2022-09-16T16:41:20;1.93;;;0.90;;
8480;SDS011;4277;51.354;6.740;2022-09-16T16:43:46;3.00;;;0.70;;
8480;SDS011;4277;51.354;6.740;2022-09-16T16:46:12;1.53;;;0.53;;
8480;SDS011;4277;51.354;6.740;2022-09-16T16:48:38;3.17;;;0.80;;
8480;SDS011;4277;51.354;6.740;2022-09-16T16:51:05;3.47;;;0.80;;
8480;SDS011;4277;51.354;6.740;2022-09-16T16:53:32;1.50;;;0.80;;
8480;SDS011;4277;51.354;6.740;2022-09-16T16:56:05;3.40;;;1.00;;
8480;SDS011;4277;51.354;6.740;2022-09-16T16:58:32;3.23;;;1.03;;
8480;SDS011;4277;51.354;6.740;2022-09-16T17:01:10;5.60;;;1.20;;
8480;SDS011;4277;51.354;6.740;2022-09-16T17:03:37;3.47;;;0.97;;
8480;SDS011;4277;51.354;6.740;2022-09-16T17:06:03;6.73;;;1.23;;
8480;SDS011;4277;51.354;6.740;2022-09-16T17:08:29;4.53;;;1.30;;
8480;SDS011;4277;51.354;6.740;2022-09-16T17:11:08;6.27;;;1.23;;
8480;SDS011;4277;51.354;6.740;2022-09-16T17:13:35;6.93;;;1.30;;
8480;SDS011;4277;51.354;6.740;2022-09-16T17:16:01;2.70;;;1.00;;
8480;SDS011;4277;51.354;6.740;2022-09-16T17:18:27;4.87;;;1.00;;
8480;SDS011;4277;51.354;6.740;2022-09-16T17:20:59;4.27;;;1.10;;
8480;SDS011;4277;51.354;6.740;2022-09-16T17:23:25;3.27;;;0.93;;
8480;SDS011;4277;51.354;6.740;2022-09-16T17:25:51;5.53;;;1.10;;
8480;SDS011;4277;51.354;6.740;2022-09-16T17:28:17;7.07;;;2.93;;
8480;SDS011;4277;51.354;6.740;2022-09-16T17:30:43;3.90;;;1.40;;
8480;SDS011;4277;51.354;6.740;2022-09-16T17:33:09;5.07;;;1.37;;
8480;SDS011;4277;51.354;6.740;2022-09-16T17:35:35;4.33;;;1.20;;
8480;SDS011;4277;51.354;6.740;2022-09-16T17:38:01;7.70;;;1.60;;
8480;SDS011;4277;51.354;6.740;2022-09-16T17:40:28;5.03;;;1.50;;
8480;SDS011;4277;51.354;6.740;2022-09-16T17:42:55;3.90;;;1.40;;
8480;SDS011;4277;51.354;6.740;2022-09-16T17:45:20;6.23;;;1.37;;
8480;SDS011;4277;51.354;6.740;2022-09-16T17:47:46;4.73;;;0.90;;
8480;SDS011;4277;51.354;6.740;2022-09-16T17:50:12;4.83;;;1.87;;
8480;SDS011;4277;51.354;6.740;2022-09-16T17:52:39;4.37;;;1.43;;
8480;SDS011;4277;51.354;6.740;2022-09-16T17:55:05;3.70;;;1.00;;
8480;SDS011;4277;51.354;6.740;2022-09-16T17:57:31;5.23;;;1.10;;
8480;SDS011;4277;51.354;6.740;2022-09-16T17:59:57;3.73;;;1.17;;
8480;SDS011;4277;51.354;6.740;2022-09-16T18:02:23;4.47;;;1.10;;
8480;SDS011;4277;51.354;6.740;2022-09-16T18:04:49;5.30;;;1.23;;
8480;SDS011;4277;51.354;6.740;2022-09-16T18:07:15;4.27;;;1.17;;
8480;SDS011;4277;51.354;6.740;2022-09-16T18:09:41;5.40;;;1.60;;
8480;SDS011;4277;51.354;6.740;2022-09-16T18:12:08;4.97;;;1.57;;
8480;SDS011;4277;51.354;6.740;2022-09-16T18:14:34;6.10;;;1.60;;
8480;SDS011;4277;51.354;6.740;2022-09-16T18:17:00;8.03;;;1.50;;
8480;SDS011;4277;51.354;6.740;2022-09-16T18:19:26;3.63;;;1.17;;
8480;SDS011;4277;51.354;6.740;2022-09-16T18:21:52;5.50;;;1.23;;